createdAt,value
2023-01-18T00:02:32.755Z,79.91
2023-01-18T00:05:05.117Z,79.77
2023-01-18T00:07:36.236Z,79.67
2023-01-18T00:10:08.358Z,79.87
2023-01-18T00:12:39.882Z,79.85
2023-01-18T00:15:13.716Z,79.91
2023-01-18T00:17:55.267Z,79.84
2023-01-18T00:20:28.321Z,79.86
2023-01-18T00:23:02.168Z,79.96
2023-01-18T00:25:33.398Z,80.04
2023-01-18T00:28:04.432Z,79.91
2023-01-18T00:30:38.108Z,79.93
2023-01-18T00:33:09.849Z,79.65
2023-01-18T00:35:43.626Z,79.92
2023-01-18T00:38:14.419Z,79.69
2023-01-18T00:40:45.469Z,79.84
2023-01-18T00:43:34.418Z,79.90
2023-01-18T00:46:11.950Z,80.00
2023-01-18T00:48:45.236Z,80.18
2023-01-18T00:51:18.312Z,80.41
2023-01-18T00:53:51.332Z,80.44
2023-01-18T00:56:24.123Z,80.57
2023-01-18T00:58:58.196Z,80.44
2023-01-18T01:01:57.602Z,80.31
2023-01-18T01:04:47.742Z,80.38
2023-01-18T01:07:19.967Z,80.48
2023-01-18T01:09:53.051Z,80.30
2023-01-18T01:12:42.145Z,80.26
2023-01-18T01:15:30.679Z,80.12
2023-01-18T01:18:19.014Z,80.29
2023-01-18T01:21:10.636Z,80.37
2023-01-18T01:24:00.570Z,80.46
2023-01-18T01:26:31.897Z,80.22
2023-01-18T01:29:01.612Z,80.19
2023-01-18T01:31:34.155Z,80.22
2023-01-18T01:34:05.052Z,80.32
2023-01-18T01:36:38.373Z,80.36
2023-01-18T01:39:11.461Z,80.54
2023-01-18T01:41:43.077Z,80.66
2023-01-18T01:44:24.816Z,80.62
2023-01-18T01:46:57.150Z,80.43
2023-01-18T01:49:37.060Z,80.46
2023-01-18T01:52:12.570Z,80.65
2023-01-18T01:54:56.988Z,80.85
2023-01-18T01:57:32.338Z,80.57
2023-01-18T02:00:07.658Z,80.66
2023-01-18T02:03:11.403Z,80.66
2023-01-18T02:05:44.593Z,80.79
2023-01-18T02:08:23.014Z,80.71
2023-01-18T02:10:54.969Z,80.68
2023-01-18T02:13:26.119Z,80.75
2023-01-18T02:15:55.349Z,80.82
2023-01-18T02:18:52.825Z,81.13
2023-01-18T02:24:42.256Z,81.01
2023-01-18T02:27:44.001Z,80.85
2023-01-18T02:30:32.583Z,81.08
2023-01-18T02:33:11.757Z,81.18
2023-01-18T02:35:54.056Z,81.28
2023-01-18T02:38:46.586Z,81.12
2023-01-18T02:41:58.102Z,81.06
2023-01-18T02:44:57.070Z,81.38
2023-01-18T02:47:30.302Z,81.57
2023-01-18T02:50:02.879Z,81.65
2023-01-18T02:52:42.745Z,81.36
2023-01-18T02:55:24.983Z,81.11
2023-01-18T02:58:01.678Z,81.48
2023-01-18T03:00:38.345Z,81.32
2023-01-18T03:03:11.583Z,81.44
2023-01-18T03:05:45.183Z,81.55
2023-01-18T03:08:37.631Z,81.62
2023-01-18T03:11:17.000Z,81.74
2023-01-18T03:13:58.916Z,81.66
2023-01-18T03:16:59.574Z,81.52
2023-01-18T03:20:04.229Z,81.72
2023-01-18T03:22:56.788Z,81.74
2023-01-18T03:25:33.323Z,81.78
2023-01-18T03:28:59.996Z,81.66
2023-01-18T03:32:00.910Z,81.96
2023-01-18T03:35:02.166Z,81.98
2023-01-18T03:37:38.107Z,82.12
2023-01-18T03:40:11.497Z,82.21
2023-01-18T03:43:04.449Z,82.18
2023-01-18T03:45:35.784Z,82.23
2023-01-18T03:48:08.558Z,82.17
2023-01-18T03:50:54.045Z,82.12
2023-01-18T03:53:39.529Z,82.04
2023-01-18T03:56:34.519Z,81.81
2023-01-18T03:59:07.308Z,81.89
2023-01-18T04:02:03.145Z,81.89
2023-01-18T04:04:36.123Z,82.14
2023-01-18T04:07:07.526Z,82.03
2023-01-18T04:09:37.257Z,82.08
2023-01-18T04:12:08.498Z,82.07
2023-01-18T04:14:39.765Z,82.21
2023-01-18T04:17:10.834Z,82.45
2023-01-18T04:19:41.229Z,82.41
2023-01-18T04:22:13.249Z,82.65
2023-01-18T04:24:44.271Z,82.57
2023-01-18T04:27:14.864Z,82.55
2023-01-18T04:29:45.327Z,82.63
2023-01-18T04:32:14.457Z,82.63
2023-01-18T04:34:44.237Z,82.61
2023-01-18T04:37:17.517Z,82.47
2023-01-18T04:39:50.094Z,82.59
2023-01-18T04:42:19.046Z,82.71
2023-01-18T04:44:51.707Z,82.44
2023-01-18T04:47:21.997Z,82.66
2023-01-18T04:49:53.157Z,82.58
2023-01-18T04:52:22.847Z,82.74
2023-01-18T04:54:53.337Z,82.74
2023-01-18T04:57:25.118Z,82.84
2023-01-18T04:59:55.521Z,82.85
2023-01-18T05:02:29.135Z,82.87
2023-01-18T05:05:02.887Z,83.05
2023-01-18T05:07:38.504Z,82.71
2023-01-18T05:10:09.381Z,82.85
2023-01-18T05:12:41.347Z,82.86
2023-01-18T05:15:15.383Z,83.08
2023-01-18T05:17:46.888Z,83.28
2023-01-18T05:20:17.857Z,83.15
2023-01-18T05:22:51.206Z,83.00
2023-01-18T05:25:21.764Z,83.13
2023-01-18T05:27:51.792Z,83.21
2023-01-18T05:30:24.947Z,83.01
2023-01-18T05:32:54.987Z,83.46
2023-01-18T05:35:28.950Z,83.19
2023-01-18T05:38:00.557Z,83.47
2023-01-18T05:40:31.611Z,83.48
2023-01-18T05:43:05.115Z,83.36
2023-01-18T05:45:36.593Z,83.40
2023-01-18T05:48:10.332Z,83.27
2023-01-18T05:50:43.967Z,83.17
2023-01-18T05:53:21.872Z,83.37
2023-01-18T05:56:00.614Z,83.36
2023-01-18T05:58:30.462Z,83.08
2023-01-18T06:01:28.958Z,83.61
2023-01-18T06:03:58.800Z,83.19
2023-01-18T06:06:30.287Z,83.48
2023-01-18T06:09:00.708Z,83.80
2023-01-18T06:11:32.429Z,83.96
2023-01-18T06:14:02.476Z,83.75
2023-01-18T06:16:33.058Z,83.73
2023-01-18T06:19:04.869Z,83.59
2023-01-18T06:21:35.920Z,83.55
2023-01-18T06:24:08.052Z,83.54
2023-01-18T06:26:38.560Z,83.57
2023-01-18T06:29:07.860Z,83.59
2023-01-18T06:31:36.823Z,83.54
2023-01-18T06:34:09.777Z,83.51
2023-01-18T06:36:43.955Z,83.27
2023-01-18T06:39:15.662Z,83.68
2023-01-18T06:41:45.499Z,83.47
2023-01-18T06:44:19.422Z,83.45
2023-01-18T06:46:52.619Z,83.56
2023-01-18T06:49:22.162Z,83.48
2023-01-18T06:51:51.328Z,83.47
2023-01-18T06:54:23.554Z,83.43
2023-01-18T06:56:55.635Z,83.47
2023-01-18T06:59:29.257Z,83.45
2023-01-18T07:01:59.889Z,83.28
2023-01-18T07:04:30.575Z,83.24
2023-01-18T07:06:59.792Z,83.55
2023-01-18T07:09:31.041Z,83.57
2023-01-18T07:12:01.528Z,83.66
2023-01-18T07:14:33.819Z,83.58
2023-01-18T07:17:02.962Z,83.70
2023-01-18T07:19:33.654Z,83.93
2023-01-18T07:22:04.800Z,84.04
2023-01-18T07:24:38.066Z,84.06
2023-01-18T07:27:09.910Z,84.02
2023-01-18T07:29:39.818Z,83.81
2023-01-18T07:32:11.322Z,83.69
2023-01-18T07:34:42.427Z,83.70
2023-01-18T07:37:15.161Z,83.70
2023-01-18T07:39:46.565Z,83.76
2023-01-18T07:42:16.886Z,83.78
2023-01-18T07:44:46.711Z,83.79
2023-01-18T07:47:50.355Z,83.90
2023-01-18T07:50:43.152Z,83.68
2023-01-18T07:53:36.327Z,83.46
2023-01-18T07:56:13.325Z,83.56
2023-01-18T07:58:50.012Z,83.57
2023-01-18T08:05:47.755Z,83.38
2023-01-18T08:08:20.470Z,82.87
2023-01-18T08:11:01.094Z,83.12
2023-01-18T08:13:35.350Z,83.30
2023-01-18T08:16:10.960Z,83.41
2023-01-18T08:19:03.678Z,83.51
2023-01-18T08:21:35.832Z,83.39
2023-01-18T08:24:09.158Z,83.50
2023-01-18T08:26:41.869Z,83.59
2023-01-18T08:29:15.334Z,83.86
2023-01-18T08:31:47.495Z,83.89
2023-01-18T08:34:19.411Z,83.75
2023-01-18T08:36:53.065Z,83.87
2023-01-18T08:39:24.020Z,83.56
2023-01-18T08:41:54.587Z,83.59
2023-01-18T08:44:26.626Z,83.54
2023-01-18T08:46:56.395Z,83.70
2023-01-18T08:49:36.757Z,83.74
2023-01-18T08:52:10.422Z,83.79
2023-01-18T08:54:43.163Z,83.77
2023-01-18T09:21:48.747Z,84.05
2023-01-18T09:25:14.988Z,84.42
2023-01-18T09:27:48.613Z,84.29
2023-01-18T09:30:19.782Z,84.25
2023-01-18T09:32:52.965Z,84.22
2023-01-18T09:35:24.231Z,84.47
2023-01-18T09:37:55.897Z,84.55
2023-01-18T09:40:45.795Z,84.72
2023-01-18T09:43:22.220Z,84.29
2023-01-18T09:45:55.419Z,84.36
2023-01-18T09:48:53.589Z,84.39
2023-01-18T09:51:31.343Z,84.37
2023-01-18T09:54:29.692Z,84.54
2023-01-18T09:57:19.717Z,84.23
2023-01-18T10:00:02.236Z,84.38
2023-01-18T10:02:40.720Z,84.35
2023-01-18T10:05:18.469Z,84.26
2023-01-18T10:08:17.071Z,84.32
2023-01-18T10:11:36.279Z,84.43
2023-01-18T10:14:26.044Z,84.54
2023-01-18T10:17:03.647Z,84.43
2023-01-18T10:19:34.529Z,84.67
2023-01-18T10:22:19.538Z,84.70
2023-01-18T10:25:14.963Z,84.61
2023-01-18T10:28:24.422Z,84.73
2023-01-18T10:31:10.778Z,84.50
2023-01-18T10:33:43.469Z,84.70
2023-01-18T10:36:27.361Z,84.69
2023-01-18T10:38:57.071Z,84.95
2023-01-18T10:41:34.400Z,84.86
2023-01-18T10:44:05.032Z,84.92
2023-01-18T10:46:34.452Z,84.72
2023-01-18T10:49:05.067Z,84.90
2023-01-18T10:51:38.092Z,84.59
2023-01-18T10:54:25.933Z,84.97
2023-01-18T10:57:05.147Z,84.81
2023-01-18T10:59:40.397Z,85.01
2023-01-18T11:02:24.198Z,84.89
2023-01-18T11:05:22.370Z,85.22
2023-01-18T11:08:33.237Z,85.10
2023-01-18T11:11:13.220Z,85.03
2023-01-18T11:13:47.221Z,85.14
2023-01-18T11:16:57.411Z,85.25
2023-01-18T11:19:27.898Z,85.05
2023-01-18T11:21:59.307Z,84.95
2023-01-18T11:24:47.358Z,85.08
2023-01-18T11:28:00.191Z,84.92
2023-01-18T11:31:13.866Z,84.59
2023-01-18T11:34:00.118Z,84.66
2023-01-18T11:36:41.244Z,84.66
2023-01-18T11:40:11.842Z,84.73
2023-01-18T11:43:29.643Z,84.82
2023-01-18T11:46:52.566Z,84.67
2023-01-18T11:50:21.064Z,84.52
2023-01-18T11:53:35.555Z,84.60
2023-01-18T11:56:29.389Z,84.60
2023-01-18T11:59:03.802Z,84.85
2023-01-18T12:02:20.434Z,84.68
2023-01-18T12:05:29.193Z,84.99
2023-01-18T12:22:07.671Z,84.74
2023-01-18T12:25:27.314Z,84.83
2023-01-18T12:32:11.441Z,84.68
2023-01-18T12:35:24.180Z,84.80
2023-01-18T12:38:35.909Z,84.70
2023-01-18T12:41:40.161Z,84.68
2023-01-18T12:45:09.966Z,84.58
2023-01-18T12:48:57.412Z,84.59
2023-01-18T12:53:06.977Z,84.92
2023-01-18T12:55:57.982Z,84.84
2023-01-18T12:58:58.996Z,84.83
2023-01-18T13:02:04.738Z,84.68
2023-01-18T13:04:50.220Z,84.63
2023-01-18T13:11:07.964Z,84.98
2023-01-18T13:14:39.603Z,84.84
2023-01-18T13:17:28.132Z,84.99
2023-01-18T13:20:07.620Z,84.95
2023-01-18T13:23:15.524Z,85.06
2023-01-18T13:26:52.625Z,84.77
2023-01-18T13:29:52.985Z,85.15
2023-01-18T13:33:12.191Z,85.00
2023-01-18T13:53:25.030Z,84.87
2023-01-18T14:03:41.257Z,84.87
2023-01-18T14:23:25.209Z,84.90
2023-01-18T14:31:01.056Z,85.23
2023-01-18T14:35:09.627Z,85.28
2023-01-18T14:39:06.232Z,85.10
2023-01-18T14:47:22.783Z,85.31
2023-01-18T14:50:34.777Z,85.09
2023-01-18T15:50:03.887Z,85.70
2023-01-18T18:32:59.183Z,86.07
